createdAt,value
2022-11-03T00:01:01.646Z,1.85
2022-11-03T00:04:11.062Z,1.50
2022-11-03T00:07:13.268Z,1.88
2022-11-03T00:10:16.217Z,2.33
2022-11-03T00:13:18.445Z,2.08
2022-11-03T00:16:22.527Z,1.92
2022-11-03T00:19:25.015Z,1.75
2022-11-03T00:22:29.549Z,1.70
2022-11-03T00:25:32.028Z,2.05
2022-11-03T00:28:35.328Z,1.55
2022-11-03T00:31:39.789Z,1.60
2022-11-03T00:34:42.618Z,2.03
2022-11-03T00:37:44.775Z,1.98
2022-11-03T00:40:55.642Z,1.77
2022-11-03T00:43:58.705Z,1.70
2022-11-03T00:47:02.785Z,1.90
2022-11-03T00:50:05.278Z,1.60
2022-11-03T00:53:08.004Z,1.60
2022-11-03T00:56:14.381Z,1.77
2022-11-03T00:59:17.424Z,1.58
2022-11-03T01:02:19.839Z,1.98
2022-11-03T01:05:48.794Z,1.48
2022-11-03T01:08:51.283Z,1.55
2022-11-03T01:12:02.446Z,1.58
2022-11-03T01:15:04.847Z,1.85
2022-11-03T01:18:07.320Z,1.77
2022-11-03T01:21:09.564Z,1.77
2022-11-03T01:24:12.506Z,1.50
2022-11-03T01:27:21.212Z,1.50
2022-11-03T01:30:23.640Z,1.83
2022-11-03T01:33:28.105Z,1.60
2022-11-03T01:36:30.676Z,1.45
2022-11-03T01:39:33.086Z,1.30
2022-11-03T01:42:35.654Z,1.60
2022-11-03T01:45:38.000Z,1.50
2022-11-03T01:48:45.767Z,1.55
2022-11-03T01:51:55.618Z,1.67
2022-11-03T01:55:03.789Z,1.67
2022-11-03T01:58:21.094Z,1.85
2022-11-03T02:01:24.015Z,1.92
2022-11-03T02:04:31.640Z,1.30
2022-11-03T02:07:40.369Z,1.73
2022-11-03T02:10:42.673Z,1.48
2022-11-03T02:13:44.923Z,1.70
2022-11-03T02:16:54.827Z,1.83
2022-11-03T02:20:13.981Z,1.70
2022-11-03T02:23:34.601Z,1.35
2022-11-03T02:26:38.627Z,1.40
2022-11-03T02:29:40.611Z,1.73
2022-11-03T02:32:56.810Z,1.63
2022-11-03T02:36:21.299Z,1.63
2022-11-03T02:39:48.534Z,2.00
2022-11-03T02:42:53.401Z,1.50
2022-11-03T02:45:57.551Z,1.60
2022-11-03T02:48:59.629Z,1.67
2022-11-03T02:52:04.326Z,1.35
2022-11-03T02:55:15.767Z,1.42
2022-11-03T02:58:49.593Z,1.77
2022-11-03T03:02:08.789Z,1.73
2022-11-03T03:05:14.614Z,1.38
2022-11-03T03:08:16.943Z,1.38
2022-11-03T03:11:37.869Z,1.40
2022-11-03T03:14:44.457Z,1.30
2022-11-03T03:18:07.686Z,1.50
2022-11-03T03:21:23.675Z,1.80
2022-11-03T03:24:38.164Z,1.63
2022-11-03T03:27:43.796Z,1.40
2022-11-03T03:30:48.700Z,1.30
2022-11-03T03:37:16.658Z,1.45
2022-11-03T03:40:27.539Z,2.00
2022-11-03T03:43:32.731Z,1.40
2022-11-03T03:46:49.938Z,1.30
2022-11-03T03:49:52.381Z,1.95
2022-11-03T03:53:02.077Z,1.73
2022-11-03T03:56:06.807Z,1.60
2022-11-03T03:59:09.085Z,1.58
2022-11-03T04:02:13.200Z,1.65
2022-11-03T04:05:15.478Z,1.97
2022-11-03T04:08:18.762Z,1.20
2022-11-03T04:11:40.005Z,1.45
2022-11-03T04:15:01.760Z,1.40
2022-11-03T04:18:23.592Z,1.25
2022-11-03T04:21:45.016Z,1.77
2022-11-03T04:24:52.044Z,2.05
2022-11-03T04:27:54.582Z,1.65
2022-11-03T04:30:59.600Z,1.80
2022-11-03T04:34:04.977Z,1.60
2022-11-03T04:37:12.632Z,2.28
2022-11-03T04:40:17.082Z,1.67
2022-11-03T04:43:21.628Z,1.73
2022-11-03T04:46:30.838Z,1.60
2022-11-03T04:49:32.740Z,2.13
2022-11-03T04:52:35.168Z,1.45
2022-11-03T04:55:37.473Z,1.40
2022-11-03T04:58:40.189Z,1.70
2022-11-03T05:01:45.503Z,1.42
2022-11-03T05:04:48.443Z,1.90
2022-11-03T05:07:58.933Z,1.50
2022-11-03T05:11:05.409Z,1.65
2022-11-03T05:14:32.666Z,1.30
2022-11-03T05:17:36.195Z,1.40
2022-11-03T05:20:46.815Z,1.38
2022-11-03T05:23:57.014Z,1.40
2022-11-03T05:27:00.310Z,1.50
2022-11-03T05:30:05.483Z,1.20
2022-11-03T05:33:20.424Z,1.55
2022-11-03T05:36:26.262Z,1.23
2022-11-03T05:39:48.579Z,1.17
2022-11-03T05:42:56.434Z,1.30
2022-11-03T05:46:02.401Z,1.40
2022-11-03T05:49:08.009Z,1.17
2022-11-03T05:52:25.828Z,1.67
2022-11-03T05:55:32.605Z,1.90
2022-11-03T05:58:39.822Z,1.58
2022-11-03T06:01:43.877Z,2.00
2022-11-03T06:04:46.711Z,1.02
2022-11-03T06:07:51.560Z,1.58
2022-11-03T06:10:56.054Z,1.42
2022-11-03T06:13:59.713Z,1.45
2022-11-03T06:17:08.851Z,1.40
2022-11-03T06:20:18.684Z,1.38
2022-11-03T06:23:22.511Z,1.30
2022-11-03T06:26:27.697Z,1.17
2022-11-03T06:29:33.587Z,2.15
2022-11-03T06:32:35.968Z,1.10
2022-11-03T06:35:38.935Z,1.50
2022-11-03T06:38:42.124Z,1.38
2022-11-03T06:41:44.382Z,2.10
2022-11-03T06:44:49.630Z,1.40
2022-11-03T06:47:53.667Z,1.45
2022-11-03T06:50:58.716Z,1.30
2022-11-03T06:54:07.240Z,1.73
2022-11-03T06:57:14.924Z,1.48
2022-11-03T07:00:34.022Z,1.75
2022-11-03T07:03:38.242Z,1.08
2022-11-03T07:06:41.181Z,1.55
2022-11-03T07:09:44.672Z,1.52
2022-11-03T07:12:46.993Z,1.50
2022-11-03T07:15:50.436Z,2.03
2022-11-03T07:18:52.619Z,1.70
2022-11-03T07:22:01.282Z,1.42
2022-11-03T07:25:04.392Z,1.42
2022-11-03T07:28:10.076Z,1.00
2022-11-03T07:31:25.521Z,1.20
2022-11-03T07:34:34.112Z,1.70
2022-11-03T07:37:36.872Z,2.30
2022-11-03T07:40:39.745Z,1.92
2022-11-03T07:43:42.024Z,1.42
2022-11-03T07:46:44.838Z,1.58
2022-11-03T07:49:49.014Z,1.95
2022-11-03T07:52:51.493Z,2.22
2022-11-03T07:55:56.851Z,1.10
2022-11-03T07:59:09.299Z,1.52
2022-11-03T08:02:22.882Z,1.50
2022-11-03T08:05:25.632Z,1.43
2022-11-03T08:08:27.785Z,2.00
2022-11-03T08:11:30.426Z,1.48
2022-11-03T08:14:34.646Z,2.00
2022-11-03T08:17:37.047Z,1.40
2022-11-03T08:20:39.177Z,1.60
2022-11-03T08:23:46.157Z,1.70
2022-11-03T08:26:50.334Z,1.30
2022-11-03T08:29:53.055Z,1.65
2022-11-03T08:32:55.973Z,1.42
2022-11-03T08:35:58.758Z,1.30
2022-11-03T08:39:00.952Z,1.30
2022-11-03T08:42:03.963Z,1.50
2022-11-03T08:45:06.688Z,1.13
2022-11-03T08:48:09.773Z,1.45
2022-11-03T08:51:14.485Z,1.48
2022-11-03T08:54:17.470Z,2.10
2022-11-03T08:57:19.906Z,1.40
2022-11-03T09:00:23.165Z,1.10
2022-11-03T09:03:25.379Z,1.70
2022-11-03T09:06:27.918Z,1.30
2022-11-03T09:12:53.821Z,1.13
2022-11-03T09:15:55.706Z,1.35
2022-11-03T09:18:58.186Z,1.30
2022-11-03T09:22:01.986Z,1.50
2022-11-03T09:25:05.943Z,1.27
2022-11-03T09:28:08.433Z,1.20
2022-11-03T09:31:11.402Z,1.58
2022-11-03T09:34:14.158Z,1.25
2022-11-03T09:37:17.553Z,1.40
2022-11-03T09:40:22.348Z,1.83
2022-11-03T09:46:29.385Z,1.40
2022-11-03T09:49:33.989Z,1.20
2022-11-03T09:52:37.215Z,1.10
2022-11-03T09:55:40.270Z,1.10
2022-11-03T09:58:42.382Z,1.73
2022-11-03T10:01:49.122Z,1.15
2022-11-03T10:04:53.603Z,1.45
2022-11-03T10:08:05.205Z,1.73
2022-11-03T10:11:09.485Z,1.27
2022-11-03T10:14:16.097Z,1.02
2022-11-03T10:17:27.364Z,1.13
2022-11-03T10:20:29.732Z,1.40
2022-11-03T10:23:32.026Z,1.15
2022-11-03T10:26:44.484Z,1.10
2022-11-03T10:30:03.524Z,1.10
2022-11-03T10:33:44.693Z,0.98
2022-11-03T10:36:50.557Z,1.50
2022-11-03T10:40:13.249Z,1.02
2022-11-03T10:43:24.868Z,1.38
2022-11-03T10:49:50.569Z,1.20
2022-11-03T10:52:54.035Z,1.65
2022-11-03T10:55:57.519Z,1.38
2022-11-03T10:59:02.012Z,1.70
2022-11-03T11:02:14.092Z,1.38
2022-11-03T11:05:21.964Z,1.60
2022-11-03T11:08:24.723Z,1.25
2022-11-03T11:11:28.405Z,1.40
2022-11-03T11:14:30.603Z,1.05
2022-11-03T11:17:42.451Z,1.27
2022-11-03T11:20:44.659Z,1.60
2022-11-03T11:23:53.334Z,1.50
2022-11-03T11:26:56.045Z,1.33
2022-11-03T11:30:01.758Z,1.75
2022-11-03T11:33:23.457Z,2.20
2022-11-03T11:36:25.943Z,1.23
2022-11-03T11:39:28.313Z,1.20
2022-11-03T11:42:36.443Z,1.25
2022-11-03T11:46:24.134Z,1.13
2022-11-03T11:49:26.937Z,1.15
2022-11-03T11:52:30.659Z,1.52
2022-11-03T11:55:52.166Z,1.08
2022-11-03T11:58:57.636Z,1.58
2022-11-03T12:02:00.575Z,1.00
2022-11-03T12:05:04.058Z,1.60
2022-11-03T12:08:21.166Z,0.80
2022-11-03T12:11:46.106Z,1.30
2022-11-03T12:14:52.292Z,1.38
2022-11-03T12:17:55.337Z,1.42
2022-11-03T12:20:57.782Z,1.17
2022-11-03T12:24:00.095Z,1.00
2022-11-03T12:27:04.716Z,1.33
2022-11-03T12:30:19.409Z,1.08
2022-11-03T12:33:22.115Z,1.20
2022-11-03T12:36:24.937Z,1.17
2022-11-03T12:39:29.475Z,1.45
2022-11-03T12:42:31.818Z,1.30
2022-11-03T12:45:34.333Z,1.70
2022-11-03T12:48:37.664Z,1.35
2022-11-03T12:51:40.353Z,1.10
2022-11-03T12:54:44.063Z,1.20
2022-11-03T13:00:53.811Z,1.13
2022-11-03T13:03:57.961Z,0.98
2022-11-03T13:07:00.322Z,0.93
2022-11-03T13:10:05.186Z,1.30
2022-11-03T13:13:07.754Z,1.25
2022-11-03T13:16:10.514Z,1.13
2022-11-03T13:19:12.884Z,1.20
2022-11-03T13:22:15.733Z,1.00
2022-11-03T13:25:19.006Z,1.25
2022-11-03T13:28:21.635Z,1.40
2022-11-03T13:31:23.883Z,1.30
2022-11-03T13:34:26.440Z,1.15
2022-11-03T13:37:29.841Z,1.05
2022-11-03T13:43:56.118Z,1.38
2022-11-03T13:46:58.806Z,1.40
2022-11-03T13:50:14.183Z,1.10
2022-11-03T14:00:06.195Z,1.98
2022-11-03T14:06:37.503Z,1.02
2022-11-03T14:09:39.935Z,1.35
2022-11-03T14:12:42.430Z,1.10
2022-11-03T14:15:44.495Z,1.23
2022-11-03T14:18:47.294Z,0.93
2022-11-03T14:21:49.439Z,1.20
2022-11-03T14:24:52.934Z,1.20
2022-11-03T14:27:55.614Z,1.33
2022-11-03T14:31:00.197Z,1.20
2022-11-03T14:34:02.629Z,1.02
2022-11-03T14:37:06.498Z,1.00
2022-11-03T14:40:29.791Z,1.23
2022-11-03T14:43:35.096Z,1.10
2022-11-03T14:46:37.305Z,1.20
2022-11-03T14:49:39.905Z,1.10
2022-11-03T14:52:41.852Z,1.25
2022-11-03T14:55:44.818Z,1.00
2022-11-03T14:58:47.121Z,1.00
2022-11-03T15:01:51.766Z,1.05
2022-11-03T15:04:54.019Z,1.05
2022-11-03T15:07:56.552Z,1.10
2022-11-03T15:10:58.669Z,1.02
2022-11-03T15:14:02.923Z,1.10
2022-11-03T15:17:05.118Z,1.00
2022-11-03T15:20:08.420Z,1.20
2022-11-03T15:26:34.124Z,1.00
2022-11-03T15:29:37.793Z,1.27
2022-11-03T15:33:17.975Z,1.20
2022-11-03T15:36:22.983Z,0.90
2022-11-03T15:39:25.752Z,0.80
2022-11-03T15:42:30.638Z,1.10
2022-11-03T15:45:34.336Z,1.27
2022-11-03T15:48:40.136Z,0.90
2022-11-03T15:51:43.432Z,1.20
2022-11-03T15:55:07.562Z,1.17
2022-11-03T16:01:59.700Z,1.05
2022-11-03T16:05:17.744Z,1.20
2022-11-03T16:08:51.296Z,1.38
2022-11-03T16:11:54.263Z,1.30
2022-11-03T16:14:56.334Z,1.10
2022-11-03T16:18:02.968Z,1.10
2022-11-03T16:21:05.245Z,1.20
2022-11-03T16:24:07.997Z,1.60
2022-11-03T16:30:51.238Z,1.60
2022-11-03T16:34:26.445Z,1.58
2022-11-03T16:38:04.815Z,1.35
2022-11-03T16:41:26.347Z,1.73
2022-11-03T16:44:33.031Z,1.00
2022-11-03T16:47:40.172Z,1.08
2022-11-03T16:50:45.099Z,1.10
2022-11-03T16:54:30.712Z,1.10
2022-11-03T16:57:36.153Z,1.10
2022-11-03T17:00:38.267Z,1.15
2022-11-03T17:03:46.561Z,1.23
2022-11-03T17:06:50.906Z,1.25
2022-11-03T17:09:53.721Z,1.63
2022-11-03T17:12:58.817Z,1.73
2022-11-03T17:16:01.674Z,1.27
2022-11-03T17:19:05.256Z,1.20
2022-11-03T17:22:07.997Z,1.33
2022-11-03T17:25:12.340Z,1.70
2022-11-03T17:28:15.586Z,1.40
2022-11-03T17:31:17.750Z,1.10
2022-11-03T17:34:24.019Z,1.67
2022-11-03T17:37:27.088Z,1.85
2022-11-03T17:40:30.189Z,1.20
2022-11-03T17:43:32.272Z,1.30
2022-11-03T17:46:34.930Z,1.48
2022-11-03T17:49:36.944Z,1.73
2022-11-03T17:52:43.740Z,1.38
2022-11-03T17:56:02.851Z,1.15
2022-11-03T17:59:15.788Z,1.55
2022-11-03T18:02:39.181Z,1.30
2022-11-03T18:05:42.650Z,1.40
2022-11-03T18:08:48.350Z,1.70
2022-11-03T18:12:09.254Z,1.75
2022-11-03T18:15:18.033Z,2.13
2022-11-03T18:18:43.745Z,2.00
2022-11-03T18:21:47.260Z,2.00
2022-11-03T18:24:52.856Z,1.80
2022-11-03T18:27:54.843Z,1.73
2022-11-03T18:30:57.459Z,1.95
2022-11-03T18:34:01.562Z,1.80
2022-11-03T18:37:04.150Z,2.53
2022-11-03T18:40:10.093Z,1.58
2022-11-03T18:43:24.603Z,2.10
2022-11-03T18:46:26.924Z,2.20
2022-11-03T18:49:33.645Z,2.42
2022-11-03T18:52:41.177Z,2.50
2022-11-03T18:55:44.056Z,2.95
2022-11-03T18:58:46.192Z,2.95
2022-11-03T19:01:48.901Z,2.97
2022-11-03T19:04:51.214Z,3.45
2022-11-03T19:07:54.799Z,3.15
2022-11-03T19:10:57.759Z,2.88
2022-11-03T19:14:02.101Z,2.85
2022-11-03T19:17:27.932Z,2.83
2022-11-03T19:20:30.703Z,2.97
2022-11-03T19:23:33.309Z,2.60
2022-11-03T19:26:46.583Z,2.72
2022-11-03T19:29:49.233Z,3.10
2022-11-03T19:32:54.819Z,2.60
2022-11-03T19:35:59.857Z,2.35
2022-11-03T19:39:02.825Z,2.45
2022-11-03T19:42:28.252Z,2.25
2022-11-03T19:45:31.676Z,2.63
2022-11-03T19:48:35.891Z,2.17
2022-11-03T19:51:40.735Z,1.92
2022-11-03T19:57:47.290Z,2.20
2022-11-03T20:00:50.647Z,2.30
2022-11-03T20:03:54.042Z,2.53
2022-11-03T20:06:58.156Z,2.07
2022-11-03T20:10:01.908Z,1.77
2022-11-03T20:13:04.579Z,2.30
2022-11-03T20:16:16.330Z,1.80
2022-11-03T20:19:18.348Z,1.80
2022-11-03T20:22:29.739Z,1.80
2022-11-03T20:25:35.347Z,1.63
2022-11-03T20:28:38.348Z,1.88
2022-11-03T20:31:42.926Z,1.60
2022-11-03T20:34:46.776Z,1.80
2022-11-03T20:37:51.014Z,1.88
2022-11-03T20:41:19.254Z,1.60
2022-11-03T20:44:21.777Z,1.70
2022-11-03T20:47:24.636Z,1.80
2022-11-03T20:50:26.630Z,1.65
2022-11-03T20:53:29.097Z,1.77
2022-11-03T20:56:31.288Z,1.40
2022-11-03T20:59:37.757Z,1.80
2022-11-03T21:02:41.633Z,1.45
2022-11-03T21:05:44.476Z,1.58
2022-11-03T21:09:13.347Z,1.38
2022-11-03T21:16:24.218Z,1.52
2022-11-03T21:19:48.867Z,1.52
2022-11-03T21:22:54.076Z,1.20
2022-11-03T21:25:58.249Z,1.02
2022-11-03T21:29:00.198Z,1.00
2022-11-03T21:32:02.697Z,1.30
2022-11-03T21:35:06.473Z,1.08
2022-11-03T21:38:10.496Z,1.13
2022-11-03T21:41:31.335Z,1.23
2022-11-03T21:44:35.199Z,0.95
2022-11-03T21:47:37.137Z,1.15
2022-11-03T21:50:39.706Z,1.45
2022-11-03T21:53:42.039Z,0.93
2022-11-03T21:56:44.582Z,1.20
2022-11-03T21:59:46.901Z,1.10
2022-11-03T22:02:49.460Z,0.90
2022-11-03T22:05:51.705Z,0.88
2022-11-03T22:08:57.730Z,0.80
2022-11-03T22:12:00.155Z,0.85
2022-11-03T22:15:21.742Z,0.98
2022-11-03T22:18:24.443Z,0.80
2022-11-03T22:21:45.870Z,0.60
2022-11-03T22:25:06.533Z,0.63
2022-11-03T22:28:14.175Z,0.68
2022-11-03T22:31:35.208Z,1.15
2022-11-03T22:34:56.286Z,0.43
2022-11-03T22:38:18.790Z,0.75
2022-11-03T22:41:39.723Z,0.70
2022-11-03T22:45:00.192Z,0.77
2022-11-03T22:48:04.815Z,0.60
2022-11-03T22:51:09.901Z,0.43
2022-11-03T22:54:12.685Z,0.60
2022-11-03T22:57:14.911Z,0.52
2022-11-03T23:00:18.510Z,0.75
2022-11-03T23:03:20.779Z,0.57
2022-11-03T23:06:27.321Z,0.50
2022-11-03T23:09:29.580Z,0.60
2022-11-03T23:12:32.230Z,0.60
2022-11-03T23:15:34.320Z,0.88
2022-11-03T23:18:55.131Z,0.43
2022-11-03T23:21:57.916Z,0.70
2022-11-03T23:25:00.620Z,0.63
2022-11-03T23:28:02.922Z,1.00
2022-11-03T23:31:05.528Z,0.93
2022-11-03T23:34:09.204Z,0.80
2022-11-03T23:37:11.527Z,0.70
2022-11-03T23:40:17.227Z,0.80
2022-11-03T23:43:23.403Z,0.63
2022-11-03T23:46:46.419Z,1.00
2022-11-03T23:49:48.884Z,0.80
2022-11-03T23:52:50.783Z,0.70
2022-11-03T23:56:11.822Z,0.75
2022-11-03T23:59:17.020Z,0.75
